Noordam — PHET — position and weather

sailwx.info

Track history (hours):
 
Tides and Currents Weather Stations Pressure Air Temp Water Temp Dewpoint Dewpoint Depression Visibility Wind Speed Wind Dir Waves Ship Positions

Noordam (Netherlands)

Ship's website: http://www.hollandamerica.com/cruiseships/Noordam

Last reported at 2017-Sep-26 13:00 UTC. Time now 2017-Sep-26 14:54 UTC.
Position N 47°36' W 125°36'.

Type: Passenger vessel. MMSI: 246028000.

Wind from 310 at 5 knots

Barometer 1017.5 mb
Air temperature 14.9 ° C
Visibility: greater than 2.2 NM
Dewpoint 14.7 ° C
Water temperature 13.0 ° C

Date/timePositionNaut miles runAvg speedWind from/ knotsBaromVisibWave heightAir tempDewpointWater temp
2017-Sep-26 13:00N 47°36' W 125°36'3217.9 310 / 51017.5 2.2 14.914.713.0
2017-Sep-26 11:10N 48°08' W 125°43'314.1
2017-Sep-26 10:58N 48°11' W 125°44'613.3
2017-Sep-26 10:30N 48°17' W 125°42'714.1
2017-Sep-26 10:00N 48°21' W 125°34'714.3
2017-Sep-26 09:31N 48°25' W 125°25'714.5
2017-Sep-26 09:00N 48°29' W 125°16'714.4
2017-Sep-26 08:30N 48°31' W 125°05'714.3
2017-Sep-26 08:00N 48°31' W 124°54'816.0
2017-Sep-26 07:30N 48°30' W 124°42'816.6
2017-Sep-26 07:00N 48°27' W 124°31'816.4
2017-Sep-26 06:30N 48°24' W 124°19'816.7
2017-Sep-26 06:00N 48°21' W 124°08'816.8
2017-Sep-26 05:30N 48°18' W 123°56'917.5
2017-Sep-26 05:00N 48°16' W 123°43'916.9
2017-Sep-26 04:30N 48°15' W 123°30'815.3
2017-Sep-26 04:00N 48°10' W 123°21'2 4.0
2017-Sep-26 03:30N 48°10' W 123°18'815.0
2017-Sep-26 03:00N 48°13' W 123°08'1138.5
2017-Sep-26 03:00N 48°12' W 123°06'714.2 010 / 21014.710.8 14.913.311.0
2017-Sep-26 02:30N 48°12' W 122°56'714.9
2017-Sep-26 02:00N 48°10' W 122°45'3181.6
2017-Sep-26 02:00N 48°12' W 122°48'1020.9 140 / 111014.710.8 14.913.311.0
2017-Sep-26 01:30N 48°04' W 122°38'815.5
2017-Sep-26 01:00N 47°57' W 122°33'815.9
2017-Sep-26 00:30N 47°50' W 122°27'816.1
2017-Sep-26 00:00N 47°42' W 122°27'510.8
2017-Sep-25 23:31N 47°37' W 122°23'0 0.7
2017-Sep-25 23:00N 47°38' W 122°23'0 0.0
2017-Sep-25 22:30N 47°38' W 122°23'0 0.0
2017-Sep-25 22:00N 47°38' W 122°23'0 0.0
2017-Sep-25 21:30N 47°38' W 122°23'0 0.0
2017-Sep-25 21:00N 47°38' W 122°23'0 0.0
2017-Sep-25 20:30N 47°38' W 122°23'0 0.0
2017-Sep-25 20:00N 47°38' W 122°23'0 0.0
2017-Sep-25 19:30N 47°38' W 122°23'0 0.0
2017-Sep-25 19:00N 47°38' W 122°23'0 0.0
2017-Sep-25 18:30N 47°38' W 122°23'0 0.0
2017-Sep-25 18:00N 47°38' W 122°23'0 0.0
2017-Sep-25 17:30N 47°38' W 122°23'0 0.0
2017-Sep-25 17:00N 47°38' W 122°23'0 0.0
2017-Sep-25 16:30N 47°38' W 122°23'0 0.0
2017-Sep-25 16:00N 47°38' W 122°23'0 0.0
2017-Sep-25 15:30N 47°38' W 122°23'0 0.0
2017-Sep-25 15:01N 47°38' W 122°23'0 0.0
2017-Sep-25 14:30N 47°38' W 122°23'0 0.0
2017-Sep-25 13:58N 47°38' W 122°23'0 0.3
2017-Sep-25 13:30N 47°38' W 122°23'2 3.9
2017-Sep-25 13:00N 47°37' W 122°26'611.4
2017-Sep-25 12:30N 47°43' W 122°28'612.3
2017-Sep-25 12:00N 47°49' W 122°28'612.5
2017-Sep-25 11:30N 47°55' W 122°30'612.7
2017-Sep-25 11:00N 47°60' W 122°37'712.7
2017-Sep-25 10:29N 48°06' W 122°40'713.7
2017-Sep-25 09:59N 48°10' W 122°48'714.2
2017-Sep-25 09:30N 48°12' W 122°58'714.5
2017-Sep-25 09:00N 48°12' W 123°09'713.4
2017-Sep-25 08:30N 48°10' W 123°18'5 9.8
2017-Sep-25 08:00N 48°10' W 123°26'510.1
2017-Sep-25 07:31N 48°13' W 123°32'510.4
2017-Sep-25 07:00N 48°18' W 123°28'511.0
2017-Sep-25 06:31N 48°23' W 123°24'5 9.3
2017-Sep-25 06:01N 48°23' W 123°17'5 9.4
2017-Sep-25 05:31N 48°26' W 123°12'510.3
2017-Sep-25 05:01N 48°31' W 123°13'510.2
2017-Sep-25 04:31N 48°36' W 123°14'510.4
2017-Sep-25 04:01N 48°41' W 123°15'612.3
2017-Sep-25 03:30N 48°45' W 123°07'612.5
2017-Sep-25 03:00N 48°49' W 123°01'714.8
2017-Sep-25 02:30N 48°54' W 123°09'713.9
2017-Sep-25 02:00N 48°59' W 123°17'713.8
2017-Sep-25 01:30N 49°04' W 123°24'713.9
2017-Sep-25 01:00N 49°11' W 123°23'714.1
2017-Sep-25 00:30N 49°18' W 123°19'713.8
2017-Sep-25 00:01N 49°19' W 123°09'2 4.1
2017-Sep-24 23:29N 49°17' W 123°07'0 0.0
2017-Sep-24 22:59N 49°17' W 123°07'0 0.0
2017-Sep-24 22:29N 49°17' W 123°07'0 0.0
2017-Sep-24 21:59N 49°17' W 123°07'0 0.0
2017-Sep-24 21:29N 49°17' W 123°07'0 0.0
2017-Sep-24 20:59N 49°17' W 123°07'0 0.0
2017-Sep-24 20:29N 49°17' W 123°07'0 0.0
2017-Sep-24 19:59N 49°17' W 123°07'0 0.0
2017-Sep-24 19:29N 49°17' W 123°07'0 0.0
2017-Sep-24 18:59N 49°17' W 123°07'0 0.0
2017-Sep-24 18:29N 49°17' W 123°07'0 0.0
2017-Sep-24 17:59N 49°17' W 123°07'0 0.0
2017-Sep-24 17:29N 49°17' W 123°07'0 0.0
2017-Sep-24 16:59N 49°17' W 123°07'0 0.0
2017-Sep-24 16:29N 49°17' W 123°07'0 0.0
2017-Sep-24 15:59N 49°17' W 123°07'0 0.0
2017-Sep-24 15:29N 49°17' W 123°07'0 0.0
2017-Sep-24 14:59N 49°17' W 123°07'0 0.0
2017-Sep-24 14:29N 49°17' W 123°07'0 0.3
2017-Sep-24 14:01N 49°17' W 123°07'1 1.9
2017-Sep-24 13:31N 49°18' W 123°07'510.5
2017-Sep-24 13:01N 49°18' W 123°15'611.3
2017-Sep-24 12:31N 49°18' W 123°24'510.4
2017-Sep-24 12:01N 49°18' W 123°32'5 9.9
2017-Sep-24 11:30N 49°17' W 123°39'5 9.2
2017-Sep-24 10:59N 49°18' W 123°47'5 9.4
2017-Sep-24 10:31N 49°19' W 123°53'5 9.6
2017-Sep-24 10:01N 49°21' W 124°00'612.4
2017-Sep-24 09:31N 49°22' W 124°10'611.6
2017-Sep-24 09:01N 49°25' W 124°18'5 9.9
2017-Sep-24 08:30N 49°27' W 124°25'5 9.7
2017-Sep-24 08:00N 49°30' W 124°30'5 9.7
2017-Sep-24 07:30N 49°33' W 124°35'5 9.8
2017-Sep-24 07:00N 49°37' W 124°41'510.3
2017-Sep-24 06:30N 49°41' W 124°45'510.0
2017-Sep-24 06:01N 49°45' W 124°50'3197.9
2017-Sep-24 06:00N 49°42' W 124°48'817.1 1014.710.8 13.012.510.0
2017-Sep-24 05:30N 49°49' W 124°56'510.0
2017-Sep-24 05:00N 49°52' W 125°01'4 8.6
2017-Sep-24 04:30N 49°55' W 125°06'510.1
2017-Sep-24 04:00N 49°59' W 125°11'611.5
2017-Sep-24 03:30N 50°04' W 125°15'612.8
2017-Sep-24 03:00N 50°09' W 125°21'714.9
2017-Sep-24 02:30N 50°16' W 125°24'4 8.4
2017-Sep-24 02:00N 50°18' W 125°30'494.8 310 / 21014.710.8 13.012.510.0
2017-Sep-24 01:57N 50°21' W 125°32'917.5
2017-Sep-24 01:27N 50°22' W 125°46'2918.1
2017-Sep-23 23:51N 50°30' W 126°30'717.0
2017-Sep-23 23:25N 50°32' W 126°41'4018.0
2017-Sep-23 21:10N 50°53' W 127°35'319.1
2017-Sep-23 21:00N 50°55' W 127°39'918.9
2017-Sep-23 20:30N 51°00' W 127°51'918.6
2017-Sep-23 20:00N 51°05' W 128°04'36611.1
2017-Sep-22 11:00N 56°12' W 133°42'4310.7 140 / 91014.710.8 8.8 8.312.0
2017-Sep-22 07:00N 56°48' W 134°24'1615.5 170 / 241013.1 5.4 8.8 8.312.0
2017-Sep-22 06:00N 57°00' W 134°06'4321.6 220 / 121013.1 5.4 8.8 8.312.0
2017-Sep-22 04:00N 57°42' W 133°48'68 1.7 180 / 191003.110.8 8.8 8.312.0
2017-Sep-20 11:00N 58°36' W 135°06'2713.0 340 / 81014.010.8 9.4 8.912.0
2017-Sep-20 08:53N 58°09' W 135°10'716.3
2017-Sep-20 08:26N 58°11' W 135°23'716.4
2017-Sep-20 08:00N 58°15' W 135°35'816.8
2017-Sep-20 07:30N 58°19' W 135°49'917.7
2017-Sep-20 07:00N 58°20' W 136°06'917.7
2017-Sep-20 06:30N 58°17' W 136°22'1314.7
2017-Sep-20 05:35N 58°08' W 136°41'115.1
2017-Sep-20 05:31N 58°08' W 136°43'16 8.8
2017-Sep-20 03:38N 58°18' W 136°19'219.3
2017-Sep-20 03:30N 58°19' W 136°14'918.0
2017-Sep-20 03:00N 58°23' W 135°59'611.9
2017-Sep-20 02:30N 58°28' W 136°02'918.0
2017-Sep-20 02:00N 58°37' W 136°03'815.1
2017-Sep-20 01:30N 58°43' W 136°13'918.7
2017-Sep-20 01:00N 58°48' W 136°27'5 0.7
2017-Sep-19 17:58N 58°46' W 136°19'714.6
2017-Sep-19 17:30N 58°41' W 136°11'816.6
2017-Sep-19 17:00N 58°34' W 136°04'816.1
2017-Sep-19 16:30N 58°26' W 135°59'4 7.6
2017-Sep-19 16:00N 58°22' W 135°59'612.3
2017-Sep-19 15:30N 58°19' W 136°09'35212.4
2017-Sep-18 11:00N 59°24' W 147°18'2110.7 200 / 16999.910.8 11.811.312.0
2017-Sep-18 09:00N 59°24' W 148°00'30 1.3 200 / 16999.910.8 11.811.312.0
2017-Sep-17 10:00N 59°36' W 148°54'   090 / 16992.010.8 12.812.611.0
Track history (hours):
 
Tides and Currents Weather Stations Pressure Air Temp Water Temp Dewpoint Dewpoint Depression Visibility Wind Speed Wind Dir Waves Ship Positions

Noordam (Netherlands)

Ship's website: http://www.hollandamerica.com/cruiseships/Noordam

Last reported at 2017-Sep-26 13:00 UTC. Time now 2017-Sep-26 14:54 UTC.
Position N 47°36' W 125°36'.

Type: Passenger vessel. MMSI: 246028000.

Wind from 310 at 5 knots

Barometer 1017.5 mb
Air temperature 14.9 ° C
Visibility: greater than 2.2 NM
Dewpoint 14.7 ° C
Water temperature 13.0 ° C

Date/timePositionNaut miles runAvg speedWind from/ knotsBaromVisibWave heightAir tempDewpointWater temp
2017-Sep-26 13:00N 47°36' W 125°36'3217.9 310 / 51017.5 2.2 14.914.713.0
2017-Sep-26 11:10N 48°08' W 125°43'314.1
2017-Sep-26 10:58N 48°11' W 125°44'613.3
2017-Sep-26 10:30N 48°17' W 125°42'714.1
2017-Sep-26 10:00N 48°21' W 125°34'714.3
2017-Sep-26 09:31N 48°25' W 125°25'714.5
2017-Sep-26 09:00N 48°29' W 125°16'714.4
2017-Sep-26 08:30N 48°31' W 125°05'714.3
2017-Sep-26 08:00N 48°31' W 124°54'816.0
2017-Sep-26 07:30N 48°30' W 124°42'816.6
2017-Sep-26 07:00N 48°27' W 124°31'816.4
2017-Sep-26 06:30N 48°24' W 124°19'816.7
2017-Sep-26 06:00N 48°21' W 124°08'816.8
2017-Sep-26 05:30N 48°18' W 123°56'917.5
2017-Sep-26 05:00N 48°16' W 123°43'916.9
2017-Sep-26 04:30N 48°15' W 123°30'815.3
2017-Sep-26 04:00N 48°10' W 123°21'2 4.0
2017-Sep-26 03:30N 48°10' W 123°18'815.0
2017-Sep-26 03:00N 48°13' W 123°08'1138.5
2017-Sep-26 03:00N 48°12' W 123°06'714.2 010 / 21014.710.8 14.913.311.0
2017-Sep-26 02:30N 48°12' W 122°56'714.9
2017-Sep-26 02:00N 48°10' W 122°45'3181.6
2017-Sep-26 02:00N 48°12' W 122°48'1020.9 140 / 111014.710.8 14.913.311.0
2017-Sep-26 01:30N 48°04' W 122°38'815.5
2017-Sep-26 01:00N 47°57' W 122°33'815.9
2017-Sep-26 00:30N 47°50' W 122°27'816.1
2017-Sep-26 00:00N 47°42' W 122°27'510.8
2017-Sep-25 23:31N 47°37' W 122°23'0 0.7
2017-Sep-25 23:00N 47°38' W 122°23'0 0.0
2017-Sep-25 22:30N 47°38' W 122°23'0 0.0
2017-Sep-25 22:00N 47°38' W 122°23'0 0.0
2017-Sep-25 21:30N 47°38' W 122°23'0 0.0
2017-Sep-25 21:00N 47°38' W 122°23'0 0.0
2017-Sep-25 20:30N 47°38' W 122°23'0 0.0
2017-Sep-25 20:00N 47°38' W 122°23'0 0.0
2017-Sep-25 19:30N 47°38' W 122°23'0 0.0
2017-Sep-25 19:00N 47°38' W 122°23'0 0.0
2017-Sep-25 18:30N 47°38' W 122°23'0 0.0
2017-Sep-25 18:00N 47°38' W 122°23'0 0.0
2017-Sep-25 17:30N 47°38' W 122°23'0 0.0
2017-Sep-25 17:00N 47°38' W 122°23'0 0.0
2017-Sep-25 16:30N 47°38' W 122°23'0 0.0
2017-Sep-25 16:00N 47°38' W 122°23'0 0.0
2017-Sep-25 15:30N 47°38' W 122°23'0 0.0
2017-Sep-25 15:01N 47°38' W 122°23'0 0.0
2017-Sep-25 14:30N 47°38' W 122°23'0 0.0
2017-Sep-25 13:58N 47°38' W 122°23'0 0.3
2017-Sep-25 13:30N 47°38' W 122°23'2 3.9
2017-Sep-25 13:00N 47°37' W 122°26'611.4
2017-Sep-25 12:30N 47°43' W 122°28'612.3
2017-Sep-25 12:00N 47°49' W 122°28'612.5
2017-Sep-25 11:30N 47°55' W 122°30'612.7
2017-Sep-25 11:00N 47°60' W 122°37'712.7
2017-Sep-25 10:29N 48°06' W 122°40'713.7
2017-Sep-25 09:59N 48°10' W 122°48'714.2
2017-Sep-25 09:30N 48°12' W 122°58'714.5
2017-Sep-25 09:00N 48°12' W 123°09'713.4
2017-Sep-25 08:30N 48°10' W 123°18'5 9.8
2017-Sep-25 08:00N 48°10' W 123°26'510.1
2017-Sep-25 07:31N 48°13' W 123°32'510.4
2017-Sep-25 07:00N 48°18' W 123°28'511.0
2017-Sep-25 06:31N 48°23' W 123°24'5 9.3
2017-Sep-25 06:01N 48°23' W 123°17'5 9.4
2017-Sep-25 05:31N 48°26' W 123°12'510.3
2017-Sep-25 05:01N 48°31' W 123°13'510.2
2017-Sep-25 04:31N 48°36' W 123°14'510.4
2017-Sep-25 04:01N 48°41' W 123°15'612.3
2017-Sep-25 03:30N 48°45' W 123°07'612.5
2017-Sep-25 03:00N 48°49' W 123°01'714.8
2017-Sep-25 02:30N 48°54' W 123°09'713.9
2017-Sep-25 02:00N 48°59' W 123°17'713.8
2017-Sep-25 01:30N 49°04' W 123°24'713.9
2017-Sep-25 01:00N 49°11' W 123°23'714.1
2017-Sep-25 00:30N 49°18' W 123°19'713.8
2017-Sep-25 00:01N 49°19' W 123°09'2 4.1
2017-Sep-24 23:29N 49°17' W 123°07'0 0.0
2017-Sep-24 22:59N 49°17' W 123°07'0 0.0
2017-Sep-24 22:29N 49°17' W 123°07'0 0.0
2017-Sep-24 21:59N 49°17' W 123°07'0 0.0
2017-Sep-24 21:29N 49°17' W 123°07'0 0.0
2017-Sep-24 20:59N 49°17' W 123°07'0 0.0
2017-Sep-24 20:29N 49°17' W 123°07'0 0.0
2017-Sep-24 19:59N 49°17' W 123°07'0 0.0
2017-Sep-24 19:29N 49°17' W 123°07'0 0.0
2017-Sep-24 18:59N 49°17' W 123°07'0 0.0
2017-Sep-24 18:29N 49°17' W 123°07'0 0.0
2017-Sep-24 17:59N 49°17' W 123°07'0 0.0
2017-Sep-24 17:29N 49°17' W 123°07'0 0.0
2017-Sep-24 16:59N 49°17' W 123°07'0 0.0
2017-Sep-24 16:29N 49°17' W 123°07'0 0.0
2017-Sep-24 15:59N 49°17' W 123°07'0 0.0
2017-Sep-24 15:29N 49°17' W 123°07'0 0.0
2017-Sep-24 14:59N 49°17' W 123°07'0 0.0
2017-Sep-24 14:29N 49°17' W 123°07'0 0.3
2017-Sep-24 14:01N 49°17' W 123°07'1 1.9
2017-Sep-24 13:31N 49°18' W 123°07'510.5
2017-Sep-24 13:01N 49°18' W 123°15'611.3
2017-Sep-24 12:31N 49°18' W 123°24'510.4
2017-Sep-24 12:01N 49°18' W 123°32'5 9.9
2017-Sep-24 11:30N 49°17' W 123°39'5 9.2
2017-Sep-24 10:59N 49°18' W 123°47'5 9.4
2017-Sep-24 10:31N 49°19' W 123°53'5 9.6
2017-Sep-24 10:01N 49°21' W 124°00'612.4
2017-Sep-24 09:31N 49°22' W 124°10'611.6
2017-Sep-24 09:01N 49°25' W 124°18'5 9.9
2017-Sep-24 08:30N 49°27' W 124°25'5 9.7
2017-Sep-24 08:00N 49°30' W 124°30'5 9.7
2017-Sep-24 07:30N 49°33' W 124°35'5 9.8
2017-Sep-24 07:00N 49°37' W 124°41'510.3
2017-Sep-24 06:30N 49°41' W 124°45'510.0
2017-Sep-24 06:01N 49°45' W 124°50'3197.9
2017-Sep-24 06:00N 49°42' W 124°48'817.1 1014.710.8 13.012.510.0
2017-Sep-24 05:30N 49°49' W 124°56'510.0
2017-Sep-24 05:00N 49°52' W 125°01'4 8.6
2017-Sep-24 04:30N 49°55' W 125°06'510.1
2017-Sep-24 04:00N 49°59' W 125°11'611.5
2017-Sep-24 03:30N 50°04' W 125°15'612.8
2017-Sep-24 03:00N 50°09' W 125°21'714.9
2017-Sep-24 02:30N 50°16' W 125°24'4 8.4
2017-Sep-24 02:00N 50°18' W 125°30'494.8 310 / 21014.710.8 13.012.510.0
2017-Sep-24 01:57N 50°21' W 125°32'917.5
2017-Sep-24 01:27N 50°22' W 125°46'2918.1
2017-Sep-23 23:51N 50°30' W 126°30'717.0
2017-Sep-23 23:25N 50°32' W 126°41'4018.0
2017-Sep-23 21:10N 50°53' W 127°35'319.1
2017-Sep-23 21:00N 50°55' W 127°39'918.9
2017-Sep-23 20:30N 51°00' W 127°51'918.6
2017-Sep-23 20:00N 51°05' W 128°04'36611.1
2017-Sep-22 11:00N 56°12' W 133°42'4310.7 140 / 91014.710.8 8.8 8.312.0
2017-Sep-22 07:00N 56°48' W 134°24'1615.5 170 / 241013.1 5.4 8.8 8.312.0
2017-Sep-22 06:00N 57°00' W 134°06'4321.6 220 / 121013.1 5.4 8.8 8.312.0
2017-Sep-22 04:00N 57°42' W 133°48'68 1.7 180 / 191003.110.8 8.8 8.312.0
2017-Sep-20 11:00N 58°36' W 135°06'2713.0 340 / 81014.010.8 9.4 8.912.0
2017-Sep-20 08:53N 58°09' W 135°10'716.3
2017-Sep-20 08:26N 58°11' W 135°23'716.4
2017-Sep-20 08:00N 58°15' W 135°35'816.8
2017-Sep-20 07:30N 58°19' W 135°49'917.7
2017-Sep-20 07:00N 58°20' W 136°06'917.7
2017-Sep-20 06:30N 58°17' W 136°22'1314.7
2017-Sep-20 05:35N 58°08' W 136°41'115.1
2017-Sep-20 05:31N 58°08' W 136°43'16 8.8
2017-Sep-20 03:38N 58°18' W 136°19'219.3
2017-Sep-20 03:30N 58°19' W 136°14'918.0
2017-Sep-20 03:00N 58°23' W 135°59'611.9
2017-Sep-20 02:30N 58°28' W 136°02'918.0
2017-Sep-20 02:00N 58°37' W 136°03'815.1
2017-Sep-20 01:30N 58°43' W 136°13'918.7
2017-Sep-20 01:00N 58°48' W 136°27'5 0.7
2017-Sep-19 17:58N 58°46' W 136°19'714.6
2017-Sep-19 17:30N 58°41' W 136°11'816.6
2017-Sep-19 17:00N 58°34' W 136°04'816.1
2017-Sep-19 16:30N 58°26' W 135°59'4 7.6
2017-Sep-19 16:00N 58°22' W 135°59'612.3
2017-Sep-19 15:30N 58°19' W 136°09'35212.4
2017-Sep-18 11:00N 59°24' W 147°18'2110.7 200 / 16999.910.8 11.811.312.0
2017-Sep-18 09:00N 59°24' W 148°00'30 1.3 200 / 16999.910.8 11.811.312.0
2017-Sep-17 10:00N 59°36' W 148°54'   090 / 16992.010.8 12.812.611.0

Dump ship's entire track history